Thunder radar more information blitzortung!


Radar de pluja more information rain snow radar


Visita la nostra xarxa de llocs de meteo:

Template documentation
and downloads

And another site



Wind From: 11-12-2017 11:00 Until: 14:59 warning for: Wind Level: Yellow info button

Pagina Historial Weather Underground text

Diari Resum Juliol 3, 2017 Unitats:  Tant    Imperial   Mètric
« Previous Dia
SegĂźent Dia »
Diari Setmana Mensual Anual Personalitzada
  Maxima: Minima: Media:
Temperatura: 89.2 °F /  31.8 °C 60.8 °F /  16.0 °C 77.7 °F /  25.4 °C
Punt de rosada: 57.7 °F /  14.3 °C 47.7 °F /  8.7 °C 52.5 °F /  11.4 °C
Humitat: 76 % 28 % 43 %
Wind Speed: 13.8 mph /  22.2 km/h - 4.5 mph /  7.3 km/h
RĂ fegues de vent: 13.8 mph /  22.2 km/h - -
Vent:- - SSW
Pression baro: 30.2 in /  1021.9 hPa 30 in /  1016.8 hPa -
Precipitacions: 0 in /  0.0 mm    
Historical Graphs
 
 
Dades de taula per Juliol 3, 2017
Temps Temperatura Punt de rosada Pression baro Vent Wind Speed RĂ fegues de vent Humitat Rainfall Rate (Hourly)
00:00 62.2 °F /  16.8 °C 51.4 °F /  10.8 °C 30.1 in /  1019.9 hPa Calm     68 % 0 in /  0.0 mm
00:03 68.9 °F /  20.5 °C 51.6 °F /  10.9 °C 30.2 in /  1021.9 hPa NE 2.3 mph /  3.7 km/h 2.3 mph /  3.7 km/h 54 % 0 in /  0.0 mm
00:10 62.1 °F /  16.7 °C 51.4 °F /  10.8 °C 30.1 in /  1019.9 hPa Calm     68 % 0 in /  0.0 mm
00:20 61.3 °F /  16.3 °C 50.7 °F /  10.4 °C 30.1 in /  1019.9 hPa SSW 2 mph /  3.2 km/h 2 mph /  3.2 km/h 68 % 0 in /  0.0 mm
00:30 60.8 °F /  16.0 °C 50.5 °F /  10.3 °C 30.1 in /  1019.9 hPa SW 1 mph /  1.6 km/h 2 mph /  3.2 km/h 69 % 0 in /  0.0 mm
00:40 61 °F /  16.1 °C 51.1 °F /  10.6 °C 30.1 in /  1019.9 hPa Calm   1 mph /  1.6 km/h 70 % 0 in /  0.0 mm
00:50 61.2 °F /  16.2 °C 51.3 °F /  10.7 °C 30.1 in /  1019.9 hPa Calm     70 % 0 in /  0.0 mm
01:00 61 °F /  16.1 °C 51.1 °F /  10.6 °C 30.1 in /  1019.9 hPa Calm     70 % 0 in /  0.0 mm
01:10 61 °F /  16.1 °C 51.1 °F /  10.6 °C 30.1 in /  1019.9 hPa Calm   1 mph /  1.6 km/h 70 % 0 in /  0.0 mm
01:20 61.2 °F /  16.2 °C 51.6 °F /  10.9 °C 30.1 in /  1019.9 hPa Calm   1 mph /  1.6 km/h 71 % 0 in /  0.0 mm
01:30 61 °F /  16.1 °C 51.1 °F /  10.6 °C 30.2 in /  1020.9 hPa Calm   1 mph /  1.6 km/h 70 % 0 in /  0.0 mm
01:40 60.8 °F /  16.0 °C 51.3 °F /  10.7 °C 30.2 in /  1020.9 hPa ENE 1 mph /  1.6 km/h 1 mph /  1.6 km/h 71 % 0 in /  0.0 mm
01:50 61.3 °F /  16.3 °C 52 °F /  11.1 °C 30.2 in /  1020.9 hPa Calm   1 mph /  1.6 km/h 71 % 0 in /  0.0 mm
02:00 62.1 °F /  16.7 °C 52.5 °F /  11.4 °C 30.2 in /  1020.9 hPa NE 1 mph /  1.6 km/h 1 mph /  1.6 km/h 71 % 0 in /  0.0 mm
02:10 61.5 °F /  16.4 °C 51.3 °F /  10.7 °C 30.2 in /  1020.9 hPa NNE 1 mph /  1.6 km/h 2 mph /  3.2 km/h 69 % 0 in /  0.0 mm
02:20 61.5 °F /  16.4 °C 51.3 °F /  10.7 °C 30.2 in /  1020.9 hPa SW 2 mph /  3.2 km/h 2 mph /  3.2 km/h 69 % 0 in /  0.0 mm
02:30 61.9 °F /  16.6 °C 51.6 °F /  10.9 °C 30.2 in /  1020.9 hPa SW 1 mph /  1.6 km/h 2 mph /  3.2 km/h 69 % 0 in /  0.0 mm
02:40 63.1 °F /  17.3 °C 52.9 °F /  11.6 °C 30.2 in /  1020.9 hPa Calm   3 mph /  4.8 km/h 69 % 0 in /  0.0 mm
02:50 63.3 °F /  17.4 °C 52.2 °F /  11.2 °C 30.2 in /  1021.9 hPa SSW 1 mph /  1.6 km/h 3 mph /  4.8 km/h 67 % 0 in /  0.0 mm
03:00 64.8 °F /  18.2 °C 53.4 °F /  11.9 °C 30.2 in /  1021.9 hPa Calm   1 mph /  1.6 km/h 67 % 0 in /  0.0 mm
03:10 64.8 °F /  18.2 °C 52.7 °F /  11.5 °C 30.2 in /  1021.9 hPa SW 1 mph /  1.6 km/h 2 mph /  3.2 km/h 65 % 0 in /  0.0 mm
03:20 66.4 °F /  19.1 °C 53.4 °F /  11.9 °C 30.2 in /  1021.9 hPa Calm   2 mph /  3.2 km/h 63 % 0 in /  0.0 mm
03:30 67.1 °F /  19.5 °C 52.7 °F /  11.5 °C 30.2 in /  1021.9 hPa East 2 mph /  3.2 km/h 4 mph /  6.4 km/h 60 % 0 in /  0.0 mm
03:40 68.4 °F /  20.2 °C 53.1 °F /  11.7 °C 30.2 in /  1021.9 hPa NE 2 mph /  3.2 km/h 2 mph /  3.2 km/h 58 % 0 in /  0.0 mm
03:50 68.4 °F /  20.2 °C 52.5 °F /  11.4 °C 30.2 in /  1021.9 hPa NNE 2 mph /  3.2 km/h 4 mph /  6.4 km/h 57 % 0 in /  0.0 mm
04:00 70 °F /  21.1 °C 53.6 °F /  12.0 °C 30.2 in /  1021.9 hPa NNE 5 mph /  8.0 km/h 5 mph /  8.0 km/h 56 % 0 in /  0.0 mm
04:10 70.7 °F /  21.5 °C 53.8 °F /  12.1 °C 30.2 in /  1021.9 hPa NNE 2 mph /  3.2 km/h 4 mph /  6.4 km/h 55 % 0 in /  0.0 mm
04:20 72.3 °F /  22.4 °C 54.7 °F /  12.6 °C 30.2 in /  1021.9 hPa ESE 1 mph /  1.6 km/h 2 mph /  3.2 km/h 54 % 0 in /  0.0 mm
04:30 72.7 °F /  22.6 °C 54.7 °F /  12.6 °C 30.2 in /  1021.9 hPa SSW 1 mph /  1.6 km/h 3 mph /  4.8 km/h 53 % 0 in /  0.0 mm
04:40 73.4 °F /  23.0 °C 54.7 °F /  12.6 °C 30.2 in /  1021.9 hPa SW 1 mph /  1.6 km/h 3 mph /  4.8 km/h 52 % 0 in /  0.0 mm
04:50 73.8 °F /  23.2 °C 54.5 °F /  12.5 °C 30.2 in /  1021.9 hPa SSW 1 mph /  1.6 km/h 3 mph /  4.8 km/h 51 % 0 in /  0.0 mm
05:00 74.3 °F /  23.5 °C 55 °F /  12.8 °C 30.2 in /  1021.9 hPa Calm   4 mph /  6.4 km/h 51 % 0 in /  0.0 mm
05:10 75.9 °F /  24.4 °C 55.9 °F /  13.3 °C 30.2 in /  1021.9 hPa SSW 1 mph /  1.6 km/h 3 mph /  4.8 km/h 50 % 0 in /  0.0 mm
05:20 76.8 °F /  24.9 °C 56.1 °F /  13.4 °C 30.2 in /  1021.9 hPa South 2 mph /  3.2 km/h 3 mph /  4.8 km/h 49 % 0 in /  0.0 mm
05:30 77 °F /  25.0 °C 55.2 °F /  12.9 °C 30.2 in /  1021.9 hPa SSE 3 mph /  4.8 km/h 3 mph /  4.8 km/h 47 % 0 in /  0.0 mm
05:35 75.6 °F /  24.2 °C 54 °F /  12.2 °C 30.2 in /  1021.9 hPa SE 2 mph /  3.2 km/h 4 mph /  6.4 km/h 47 % 0 in /  0.0 mm
10:36 75.7 °F /  24.3 °C 54.1 °F /  12.3 °C 30.2 in /  1021.9 hPa East 2.9 mph /  4.7 km/h 3.6 mph /  5.8 km/h 47 % 0 in /  0.0 mm
10:37 75.7 °F /  24.3 °C 54.1 °F /  12.3 °C 30.2 in /  1021.9 hPa SE 2.6 mph /  4.2 km/h 3.6 mph /  5.8 km/h 47 % 0 in /  0.0 mm
10:42 77 °F /  25.0 °C 55.2 °F /  12.9 °C 30.2 in /  1020.9 hPa WNW 3.5 mph /  5.6 km/h 3.5 mph /  5.6 km/h 47 % 0 in /  0.0 mm
10:47 77.4 °F /  25.2 °C 55.6 °F /  13.1 °C 30.2 in /  1020.9 hPa SW 4.6 mph /  7.4 km/h 4.6 mph /  7.4 km/h 47 % 0 in /  0.0 mm
10:52 77.9 °F /  25.5 °C 55.6 °F /  13.1 °C 30.2 in /  1020.9 hPa SE 2.3 mph /  3.7 km/h 2.3 mph /  3.7 km/h 46 % 0 in /  0.0 mm
10:57 77.4 °F /  25.2 °C 55 °F /  12.8 °C 30.2 in /  1020.9 hPa SSW 2.3 mph /  3.7 km/h 2.3 mph /  3.7 km/h 46 % 0 in /  0.0 mm
11:02 78.1 °F /  25.6 °C 55 °F /  12.8 °C 30.2 in /  1020.9 hPa SSE 3.5 mph /  5.6 km/h 3.5 mph /  5.6 km/h 45 % 0 in /  0.0 mm
11:07 78.1 °F /  25.6 °C 55 °F /  12.8 °C 30.2 in /  1020.9 hPa East 3.6 mph /  5.8 km/h 3.6 mph /  5.8 km/h 45 % 0 in /  0.0 mm
11:12 77.9 °F /  25.5 °C 54.9 °F /  12.7 °C 30.2 in /  1020.9 hPa ENE 3.5 mph /  5.6 km/h 3.5 mph /  5.6 km/h 45 % 0 in /  0.0 mm
11:17 79 °F /  26.1 °C 55.2 °F /  12.9 °C 30.2 in /  1020.9 hPa WSW 2.4 mph /  3.9 km/h 2.4 mph /  3.9 km/h 44 % 0 in /  0.0 mm
11:22 79.2 °F /  26.2 °C 55.4 °F /  13.0 °C 30.2 in /  1020.9 hPa SE 4.6 mph /  7.4 km/h 4.6 mph /  7.4 km/h 44 % 0 in /  0.0 mm
11:27 79.7 °F /  26.5 °C 55.9 °F /  13.3 °C 30.2 in /  1020.9 hPa SSW 3.5 mph /  5.6 km/h 3.5 mph /  5.6 km/h 44 % 0 in /  0.0 mm
11:32 80.4 °F /  26.9 °C 56.5 °F /  13.6 °C 30.2 in /  1020.9 hPa WNW 6.9 mph /  11.1 km/h 6.9 mph /  11.1 km/h 44 % 0 in /  0.0 mm
11:37 82.6 °F /  28.1 °C 57.2 °F /  14.0 °C 30.2 in /  1020.9 hPa SW 2.6 mph /  4.2 km/h 2.6 mph /  4.2 km/h 42 % 0 in /  0.0 mm
11:42 82.4 °F /  28.0 °C 57 °F /  13.9 °C 30.1 in /  1019.9 hPa WSW 4.6 mph /  7.4 km/h 4.6 mph /  7.4 km/h 42 % 0 in /  0.0 mm
11:47 83.1 °F /  28.4 °C 57.6 °F /  14.2 °C 30.1 in /  1019.9 hPa SW 3.5 mph /  5.6 km/h 3.5 mph /  5.6 km/h 42 % 0 in /  0.0 mm
11:52 82.9 °F /  28.3 °C 56.8 °F /  13.8 °C 30.1 in /  1019.9 hPa ESE 4.3 mph /  6.9 km/h 4.3 mph /  6.9 km/h 41 % 0 in /  0.0 mm
11:57 82 °F /  27.8 °C 55.2 °F /  12.9 °C 30.1 in /  1019.9 hPa SSE 3.5 mph /  5.6 km/h 3.5 mph /  5.6 km/h 40 % 0 in /  0.0 mm
12:02 81.7 °F /  27.6 °C 55.8 °F /  13.2 °C 30.1 in /  1019.9 hPa ESE 3.5 mph /  5.6 km/h 3.5 mph /  5.6 km/h 41 % 0 in /  0.0 mm
12:07 82.2 °F /  27.9 °C 55.6 °F /  13.1 °C 30.1 in /  1019.9 hPa ENE 3.5 mph /  5.6 km/h 3.5 mph /  5.6 km/h 40 % 0 in /  0.0 mm
12:12 82.6 °F /  28.1 °C 56.5 °F /  13.6 °C 30.1 in /  1019.9 hPa SW 4 mph /  6.4 km/h 4 mph /  6.4 km/h 41 % 0 in /  0.0 mm
12:17 83.8 °F /  28.8 °C 56.8 °F /  13.8 °C 30.1 in /  1019.9 hPa SW 5.8 mph /  9.3 km/h 5.8 mph /  9.3 km/h 40 % 0 in /  0.0 mm
12:22 85.1 °F /  29.5 °C 56.7 °F /  13.7 °C 30.1 in /  1019.9 hPa SW 2.4 mph /  3.9 km/h 2.4 mph /  3.9 km/h 38 % 0 in /  0.0 mm
12:27 84.6 °F /  29.2 °C 56.1 °F /  13.4 °C 30.1 in /  1019.9 hPa NW 3.5 mph /  5.6 km/h 3.5 mph /  5.6 km/h 38 % 0 in /  0.0 mm
12:32 84.9 °F /  29.4 °C 56.5 °F /  13.6 °C 30.1 in /  1019.9 hPa SW 4.6 mph /  7.4 km/h 4.6 mph /  7.4 km/h 38 % 0 in /  0.0 mm
12:37 85.6 °F /  29.8 °C 56.5 °F /  13.6 °C 30.1 in /  1019.9 hPa SSW 3.5 mph /  5.6 km/h 3.5 mph /  5.6 km/h 37 % 0 in /  0.0 mm
12:42 85.6 °F /  29.8 °C 56.5 °F /  13.6 °C 30.1 in /  1019.9 hPa SSW 2.3 mph /  3.7 km/h 2.3 mph /  3.7 km/h 37 % 0 in /  0.0 mm
12:47 85.8 °F /  29.9 °C 55.8 °F /  13.2 °C 30.1 in /  1019.9 hPa West 5.8 mph /  9.3 km/h 5.8 mph /  9.3 km/h 36 % 0 in /  0.0 mm
12:52 85.3 °F /  29.6 °C 54.5 °F /  12.5 °C 30.1 in /  1019.9 hPa WSW 8.1 mph /  13.0 km/h 8.1 mph /  13.0 km/h 35 % 0 in /  0.0 mm
12:57 86 °F /  30.0 °C 55.2 °F /  12.9 °C 30.1 in /  1019.9 hPa WSW 5.8 mph /  9.3 km/h 5.8 mph /  9.3 km/h 35 % 0 in /  0.0 mm
13:02 86.2 °F /  30.1 °C 54.5 °F /  12.5 °C 30.1 in /  1019.9 hPa WSW 6.9 mph /  11.1 km/h 6.9 mph /  11.1 km/h 34 % 0 in /  0.0 mm
13:07 86 °F /  30.0 °C 53.4 °F /  11.9 °C 30.1 in /  1019.9 hPa SW 6 mph /  9.7 km/h 6 mph /  9.7 km/h 33 % 0 in /  0.0 mm
13:12 86.5 °F /  30.3 °C 54 °F /  12.2 °C 30.1 in /  1019.9 hPa SSE 2.9 mph /  4.7 km/h 2.9 mph /  4.7 km/h 33 % 0 in /  0.0 mm
13:17 86.7 °F /  30.4 °C 53.2 °F /  11.8 °C 30.1 in /  1019.9 hPa SW 8.1 mph /  13.0 km/h 8.1 mph /  13.0 km/h 32 % 0 in /  0.0 mm
13:22 87.1 °F /  30.6 °C 54.5 °F /  12.5 °C 30.1 in /  1019.9 hPa SW 6.9 mph /  11.1 km/h 6.9 mph /  11.1 km/h 33 % 0 in /  0.0 mm
13:27 86.5 °F /  30.3 °C 53.2 °F /  11.8 °C 30.1 in /  1019.9 hPa South 5.8 mph /  9.3 km/h 5.8 mph /  9.3 km/h 32 % 0 in /  0.0 mm
13:32 87.8 °F /  31.0 °C 53.4 °F /  11.9 °C 30.1 in /  1019.9 hPa SSE 2.3 mph /  3.7 km/h 2.3 mph /  3.7 km/h 31 % 0 in /  0.0 mm
13:37 85.8 °F /  29.9 °C 53.4 °F /  11.9 °C 30.1 in /  1019.9 hPa WSW 3.3 mph /  5.3 km/h   33 % 0 in /  0.0 mm
13:42 87.4 °F /  30.8 °C 54.9 °F /  12.7 °C 30.1 in /  1019.9 hPa SSW 4.6 mph /  7.4 km/h 4.6 mph /  7.4 km/h 33 % 0 in /  0.0 mm
13:47 87.6 °F /  30.9 °C 55 °F /  12.8 °C 30.1 in /  1019.9 hPa West 6.9 mph /  11.1 km/h 6.9 mph /  11.1 km/h 33 % 0 in /  0.0 mm
13:52 88.2 °F /  31.2 °C 54.7 °F /  12.6 °C 30.1 in /  1019.9 hPa SSE 4 mph /  6.4 km/h 4 mph /  6.4 km/h 32 % 0 in /  0.0 mm
13:57 88.2 °F /  31.2 °C 54.7 °F /  12.6 °C 30.1 in /  1018.8 hPa SW 3.5 mph /  5.6 km/h 4.5 mph /  7.2 km/h 32 % 0 in /  0.0 mm
14:02 89.1 °F /  31.7 °C 56.1 °F /  13.4 °C 30.1 in /  1018.8 hPa West 4.6 mph /  7.4 km/h 4.6 mph /  7.4 km/h 33 % 0 in /  0.0 mm
14:07 86.5 °F /  30.3 °C 55.6 °F /  13.1 °C 30.1 in /  1018.8 hPa ENE 5.8 mph /  9.3 km/h 5.8 mph /  9.3 km/h 35 % 0 in /  0.0 mm
14:12 86.9 °F /  30.5 °C 55.9 °F /  13.3 °C 30.1 in /  1018.8 hPa SW 8.1 mph /  13.0 km/h 8.1 mph /  13.0 km/h 35 % 0 in /  0.0 mm
14:17 88.7 °F /  31.5 °C 56.7 °F /  13.7 °C 30.1 in /  1018.8 hPa SW 2.3 mph /  3.7 km/h 2.6 mph /  4.2 km/h 34 % 0 in /  0.0 mm
14:22 89.1 °F /  31.7 °C 57 °F /  13.9 °C 30.1 in /  1018.8 hPa SW 5.8 mph /  9.3 km/h 5.8 mph /  9.3 km/h 34 % 0 in /  0.0 mm
14:27 88.7 °F /  31.5 °C 56.7 °F /  13.7 °C 30.1 in /  1018.8 hPa West 7.1 mph /  11.4 km/h 7.1 mph /  11.4 km/h 34 % 0 in /  0.0 mm
14:32 88.9 °F /  31.6 °C 56.8 °F /  13.8 °C 30.1 in /  1018.8 hPa SW 6.2 mph /  10.0 km/h 6.2 mph /  10.0 km/h 34 % 0 in /  0.0 mm
14:37 88.2 °F /  31.2 °C 56.3 °F /  13.5 °C 30.1 in /  1018.8 hPa SSW 10.4 mph /  16.7 km/h 10.4 mph /  16.7 km/h 34 % 0 in /  0.0 mm
14:42 88.7 °F /  31.5 °C 56.7 °F /  13.7 °C 30.1 in /  1018.8 hPa SW 8.1 mph /  13.0 km/h 8.1 mph /  13.0 km/h 34 % 0 in /  0.0 mm
14:47 88.5 °F /  31.4 °C 56.7 °F /  13.7 °C 30.1 in /  1018.8 hPa WSW 6 mph /  9.7 km/h 6 mph /  9.7 km/h 34 % 0 in /  0.0 mm
14:52 88.5 °F /  31.4 °C 55.8 °F /  13.2 °C 30.1 in /  1018.8 hPa West 4.6 mph /  7.4 km/h 4.7 mph /  7.6 km/h 33 % 0 in /  0.0 mm
14:57 88.5 °F /  31.4 °C 55.8 °F /  13.2 °C 30.1 in /  1018.8 hPa SSW 9.2 mph /  14.8 km/h 9.2 mph /  14.8 km/h 33 % 0 in /  0.0 mm
15:02 88.3 °F /  31.3 °C 54.7 °F /  12.6 °C 30.1 in /  1018.8 hPa SSW 5.9 mph /  9.5 km/h 5.9 mph /  9.5 km/h 32 % 0 in /  0.0 mm
15:07 88.2 °F /  31.2 °C 54.7 °F /  12.6 °C 30.1 in /  1018.8 hPa SSW 9.2 mph /  14.8 km/h 9.2 mph /  14.8 km/h 32 % 0 in /  0.0 mm
15:12 88.2 °F /  31.2 °C 54.7 °F /  12.6 °C 30.1 in /  1018.8 hPa SW 9.2 mph /  14.8 km/h 9.2 mph /  14.8 km/h 32 % 0 in /  0.0 mm
15:17 88.2 °F /  31.2 °C 53.8 °F /  12.1 °C 30.1 in /  1018.8 hPa SW 5.8 mph /  9.3 km/h 5.8 mph /  9.3 km/h 31 % 0 in /  0.0 mm
15:22 88.3 °F /  31.3 °C 54 °F /  12.2 °C 30.1 in /  1018.8 hPa SW 6.9 mph /  11.1 km/h 6.9 mph /  11.1 km/h 31 % 0 in /  0.0 mm
15:27 88.5 °F /  31.4 °C 54 °F /  12.2 °C 30.1 in /  1018.8 hPa WNW 5.8 mph /  9.3 km/h 5.8 mph /  9.3 km/h 31 % 0 in /  0.0 mm
15:32 88.2 °F /  31.2 °C 52.9 °F /  11.6 °C 30.1 in /  1018.8 hPa SSW 4.3 mph /  6.9 km/h 4.5 mph /  7.2 km/h 30 % 0 in /  0.0 mm
15:37 88 °F /  31.1 °C 52.7 °F /  11.5 °C 30.1 in /  1018.8 hPa SW 5.9 mph /  9.5 km/h 5.9 mph /  9.5 km/h 30 % 0 in /  0.0 mm
15:42 88 °F /  31.1 °C 52.7 °F /  11.5 °C 30.1 in /  1018.8 hPa South 6.7 mph /  10.8 km/h 6.7 mph /  10.8 km/h 30 % 0 in /  0.0 mm
15:47 88.7 °F /  31.5 °C 53.2 °F /  11.8 °C 30.1 in /  1018.8 hPa SSW 9.2 mph /  14.8 km/h 9.2 mph /  14.8 km/h 30 % 0 in /  0.0 mm
15:52 88.3 °F /  31.3 °C 53.1 °F /  11.7 °C 30.1 in /  1018.8 hPa South 9.2 mph /  14.8 km/h 9.2 mph /  14.8 km/h 30 % 0 in /  0.0 mm
15:57 88.3 °F /  31.3 °C 53.1 °F /  11.7 °C 30.1 in /  1017.8 hPa SW 6.9 mph /  11.1 km/h 6.9 mph /  11.1 km/h 30 % 0 in /  0.0 mm
16:02 87.4 °F /  30.8 °C 51.3 °F /  10.7 °C 30.1 in /  1017.8 hPa SW 8.1 mph /  13.0 km/h 8.1 mph /  13.0 km/h 29 % 0 in /  0.0 mm
16:07 88.5 °F /  31.4 °C 52.2 °F /  11.2 °C 30.1 in /  1017.8 hPa WSW 10 mph /  16.1 km/h 10 mph /  16.1 km/h 29 % 0 in /  0.0 mm
16:12 88.7 °F /  31.5 °C 52.3 °F /  11.3 °C 30.1 in /  1017.8 hPa South 8.1 mph /  13.0 km/h 8.1 mph /  13.0 km/h 29 % 0 in /  0.0 mm
16:17 89.2 °F /  31.8 °C 52.9 °F /  11.6 °C 30.1 in /  1017.8 hPa SW 6.9 mph /  11.1 km/h 6.9 mph /  11.1 km/h 29 % 0 in /  0.0 mm
16:22 87.8 °F /  31.0 °C 51.6 °F /  10.9 °C 30.1 in /  1017.8 hPa SW 10.4 mph /  16.7 km/h 10.4 mph /  16.7 km/h 29 % 0 in /  0.0 mm
16:27 87.3 °F /  30.7 °C 51.1 °F /  10.6 °C 30.1 in /  1017.8 hPa WSW 9 mph /  14.5 km/h 9 mph /  14.5 km/h 29 % 0 in /  0.0 mm
16:32 86.5 °F /  30.3 °C 49.6 °F /  9.8 °C 30.1 in /  1017.8 hPa SW 12.7 mph /  20.4 km/h 12.7 mph /  20.4 km/h 28 % 0 in /  0.0 mm
16:37 86.2 °F /  30.1 °C 49.3 °F /  9.6 °C 30.1 in /  1017.8 hPa WNW 12.7 mph /  20.4 km/h 12.7 mph /  20.4 km/h 28 % 0 in /  0.0 mm
16:42 85.6 °F /  29.8 °C 48.7 °F /  9.3 °C 30.1 in /  1017.8 hPa SSW 10.4 mph /  16.7 km/h 10.4 mph /  16.7 km/h 28 % 0 in /  0.0 mm
16:47 85.3 °F /  29.6 °C 48.6 °F /  9.2 °C 30.1 in /  1017.8 hPa SW 9.2 mph /  14.8 km/h 9.2 mph /  14.8 km/h 28 % 0 in /  0.0 mm
16:52 85.8 °F /  29.9 °C 48.9 °F /  9.4 °C 30.1 in /  1017.8 hPa SSE 8.1 mph /  13.0 km/h 8.1 mph /  13.0 km/h 28 % 0 in /  0.0 mm
16:57 84.9 °F /  29.4 °C 48.2 °F /  9.0 °C 30.1 in /  1017.8 hPa SW 12.7 mph /  20.4 km/h 12.7 mph /  20.4 km/h 28 % 0 in /  0.0 mm
17:02 85.3 °F /  29.6 °C 49.5 °F /  9.7 °C 30.1 in /  1017.8 hPa WSW 9.7 mph /  15.6 km/h 9.7 mph /  15.6 km/h 29 % 0 in /  0.0 mm
17:07 85.5 °F /  29.7 °C 49.6 °F /  9.8 °C 30.1 in /  1017.8 hPa SSW 8.1 mph /  13.0 km/h 8.1 mph /  13.0 km/h 29 % 0 in /  0.0 mm
17:12 84.6 °F /  29.2 °C 47.8 °F /  8.8 °C 30 in /  1016.8 hPa SSW 10.4 mph /  16.7 km/h 10.4 mph /  16.7 km/h 28 % 0 in /  0.0 mm
17:17 84 °F /  28.9 °C 48.4 °F /  9.1 °C 30 in /  1016.8 hPa SW 12.7 mph /  20.4 km/h 12.7 mph /  20.4 km/h 29 % 0 in /  0.0 mm
17:22 84.2 °F /  29.0 °C 47.7 °F /  8.7 °C 30 in /  1016.8 hPa SW 9.2 mph /  14.8 km/h 9.2 mph /  14.8 km/h 28 % 0 in /  0.0 mm
17:27 84.7 °F /  29.3 °C 48.9 °F /  9.4 °C 30.1 in /  1017.8 hPa SSW 10.4 mph /  16.7 km/h 10.4 mph /  16.7 km/h 29 % 0 in /  0.0 mm
17:32 84.6 °F /  29.2 °C 48.7 °F /  9.3 °C 30.1 in /  1017.8 hPa South 9.2 mph /  14.8 km/h 9.2 mph /  14.8 km/h 29 % 0 in /  0.0 mm
17:37 84.6 °F /  29.2 °C 48.7 °F /  9.3 °C 30.1 in /  1017.8 hPa WSW 12.7 mph /  20.4 km/h 12.7 mph /  20.4 km/h 29 % 0 in /  0.0 mm
17:42 84 °F /  28.9 °C 49.3 °F /  9.6 °C 30.1 in /  1017.8 hPa SSW 9.2 mph /  14.8 km/h 9.2 mph /  14.8 km/h 30 % 0 in /  0.0 mm
17:47 84 °F /  28.9 °C 49.3 °F /  9.6 °C 30.1 in /  1017.8 hPa SW 8.5 mph /  13.7 km/h 8.5 mph /  13.7 km/h 30 % 0 in /  0.0 mm
17:52 84.2 °F /  29.0 °C 48.6 °F /  9.2 °C 30.1 in /  1017.8 hPa SW 10.4 mph /  16.7 km/h 10.4 mph /  16.7 km/h 29 % 0 in /  0.0 mm
17:57 83.8 °F /  28.8 °C 49.1 °F /  9.5 °C 30 in /  1016.8 hPa West 9.2 mph /  14.8 km/h 9.2 mph /  14.8 km/h 30 % 0 in /  0.0 mm
18:02 84 °F /  28.9 °C 49.3 °F /  9.6 °C 30 in /  1016.8 hPa SSE 8.1 mph /  13.0 km/h 8.1 mph /  13.0 km/h 30 % 0 in /  0.0 mm
18:07 83.3 °F /  28.5 °C 48.6 °F /  9.2 °C 30 in /  1016.8 hPa SSW 13.8 mph /  22.2 km/h 13.8 mph /  22.2 km/h 30 % 0 in /  0.0 mm
18:12 83.7 °F /  28.7 °C 48.9 °F /  9.4 °C 30.1 in /  1017.8 hPa SW 8.1 mph /  13.0 km/h 8.1 mph /  13.0 km/h 30 % 0 in /  0.0 mm
18:17 83.7 °F /  28.7 °C 48.9 °F /  9.4 °C 30.1 in /  1017.8 hPa SW 6.2 mph /  10.0 km/h 6.2 mph /  10.0 km/h 30 % 0 in /  0.0 mm
18:22 83.3 °F /  28.5 °C 48.6 °F /  9.2 °C 30.1 in /  1017.8 hPa SW 6.9 mph /  11.1 km/h 6.9 mph /  11.1 km/h 30 % 0 in /  0.0 mm
18:27 83.7 °F /  28.7 °C 49.8 °F /  9.9 °C 30.1 in /  1017.8 hPa SSW 7.8 mph /  12.6 km/h 7.8 mph /  12.6 km/h 31 % 0 in /  0.0 mm
18:32 83.3 °F /  28.5 °C 49.5 °F /  9.7 °C 30.1 in /  1017.8 hPa WSW 9.2 mph /  14.8 km/h 9.2 mph /  14.8 km/h 31 % 0 in /  0.0 mm
18:37 82.2 °F /  27.9 °C 48.6 °F /  9.2 °C 30.1 in /  1017.8 hPa South 6.9 mph /  11.1 km/h 6.9 mph /  11.1 km/h 31 % 0 in /  0.0 mm
18:42 82.8 °F /  28.2 °C 48.9 °F /  9.4 °C 30.1 in /  1017.8 hPa SSE 5.6 mph /  9.0 km/h 5.6 mph /  9.0 km/h 31 % 0 in /  0.0 mm
18:47 82.8 °F /  28.2 °C 48.9 °F /  9.4 °C 30.1 in /  1017.8 hPa SSW 5.4 mph /  8.7 km/h 5.4 mph /  8.7 km/h 31 % 0 in /  0.0 mm
18:52 82 °F /  27.8 °C 49.3 °F /  9.6 °C 30.1 in /  1017.8 hPa WSW 6.9 mph /  11.1 km/h 6.9 mph /  11.1 km/h 32 % 0 in /  0.0 mm
18:57 81.5 °F /  27.5 °C 48.7 °F /  9.3 °C 30.1 in /  1017.8 hPa SSW 10.4 mph /  16.7 km/h 10.4 mph /  16.7 km/h 32 % 0 in /  0.0 mm
19:02 81.3 °F /  27.4 °C 48.6 °F /  9.2 °C 30.1 in /  1017.8 hPa South 8.1 mph /  13.0 km/h 8.1 mph /  13.0 km/h 32 % 0 in /  0.0 mm
19:07 81.1 °F /  27.3 °C 48.6 °F /  9.2 °C 30.1 in /  1017.8 hPa South 8.1 mph /  13.0 km/h 8.1 mph /  13.0 km/h 32 % 0 in /  0.0 mm
19:10 70.2 °F /  21.2 °C 52.7 °F /  11.5 °C 30.2 in /  1021.9 hPa WSW 3 mph /  4.8 km/h 3 mph /  4.8 km/h 54 % 0 in /  0.0 mm
19:12 81.3 °F /  27.4 °C 48.6 °F /  9.2 °C 30.1 in /  1017.8 hPa SW 6.9 mph /  11.1 km/h 6.9 mph /  11.1 km/h 32 % 0 in /  0.0 mm
19:17 80.8 °F /  27.1 °C 48.2 °F /  9.0 °C 30.1 in /  1017.8 hPa South 5.9 mph /  9.5 km/h 5.9 mph /  9.5 km/h 32 % 0 in /  0.0 mm
19:20 70 °F /  21.1 °C 53.1 °F /  11.7 °C 30.1 in /  1018.8 hPa SW 1 mph /  1.6 km/h 3 mph /  4.8 km/h 55 % 0 in /  0.0 mm
19:22 80.4 °F /  26.9 °C 48.7 °F /  9.3 °C 30.1 in /  1017.8 hPa WSW 8.1 mph /  13.0 km/h 8.1 mph /  13.0 km/h 33 % 0 in /  0.0 mm
19:27 80.1 °F /  26.7 °C 49.3 °F /  9.6 °C 30.1 in /  1017.8 hPa South 5.8 mph /  9.3 km/h 5.8 mph /  9.3 km/h 34 % 0 in /  0.0 mm
19:30 69.6 °F /  20.9 °C 53.2 °F /  11.8 °C 30.1 in /  1018.8 hPa WSW 2 mph /  3.2 km/h 2 mph /  3.2 km/h 56 % 0 in /  0.0 mm
19:32 80.2 °F /  26.8 °C 49.3 °F /  9.6 °C 30.1 in /  1017.8 hPa SSW 9.2 mph /  14.8 km/h 9.2 mph /  14.8 km/h 34 % 0 in /  0.0 mm
19:37 80.1 °F /  26.7 °C 49.3 °F /  9.6 °C 30.1 in /  1017.8 hPa West 2.3 mph /  3.7 km/h 2.3 mph /  3.7 km/h 34 % 0 in /  0.0 mm
19:40 69.4 °F /  20.8 °C 54 °F /  12.2 °C 30.1 in /  1018.8 hPa WSW 1 mph /  1.6 km/h 2 mph /  3.2 km/h 58 % 0 in /  0.0 mm
19:42 79.9 °F /  26.6 °C 49.8 °F /  9.9 °C 30.1 in /  1017.8 hPa SW 8.1 mph /  13.0 km/h 8.1 mph /  13.0 km/h 35 % 0 in /  0.0 mm
19:47 79.7 °F /  26.5 °C 49.6 °F /  9.8 °C 30.1 in /  1017.8 hPa East 5.8 mph /  9.3 km/h 5.8 mph /  9.3 km/h 35 % 0 in /  0.0 mm
19:50 69.3 °F /  20.7 °C 53.8 °F /  12.1 °C 30.1 in /  1018.8 hPa West 1 mph /  1.6 km/h 3 mph /  4.8 km/h 58 % 0 in /  0.0 mm
19:52 79.5 °F /  26.4 °C 50.2 °F /  10.1 °C 30.1 in /  1017.8 hPa SW 6.9 mph /  11.1 km/h 6.9 mph /  11.1 km/h 36 % 0 in /  0.0 mm
19:57 79.3 °F /  26.3 °C 50.2 °F /  10.1 °C 30.1 in /  1017.8 hPa WSW 3.5 mph /  5.6 km/h 3.5 mph /  5.6 km/h 36 % 0 in /  0.0 mm
20:00 69.3 °F /  20.7 °C 54.9 °F /  12.7 °C 30.1 in /  1018.8 hPa West 2 mph /  3.2 km/h 3 mph /  4.8 km/h 60 % 0 in /  0.0 mm
20:02 79 °F /  26.1 °C 49.6 °F /  9.8 °C 30.1 in /  1017.8 hPa SSW 9.2 mph /  14.8 km/h 9.2 mph /  14.8 km/h 36 % 0 in /  0.0 mm
20:07 79 °F /  26.1 °C 50.5 °F /  10.3 °C 30.1 in /  1017.8 hPa SW 5.8 mph /  9.3 km/h 5.8 mph /  9.3 km/h 37 % 0 in /  0.0 mm
20:10 69.1 °F /  20.6 °C 54.7 °F /  12.6 °C 30.1 in /  1018.8 hPa West 2 mph /  3.2 km/h 2 mph /  3.2 km/h 60 % 0 in /  0.0 mm
20:12 78.6 °F /  25.9 °C 50.2 °F /  10.1 °C 30.1 in /  1017.8 hPa SSW 8.7 mph /  14.0 km/h 8.7 mph /  14.0 km/h 37 % 0 in /  0.0 mm
20:17 78.4 °F /  25.8 °C 50 °F /  10.0 °C 30.1 in /  1017.8 hPa South 5.8 mph /  9.3 km/h 5.8 mph /  9.3 km/h 37 % 0 in /  0.0 mm
20:20 68.9 °F /  20.5 °C 55.2 °F /  12.9 °C 30.1 in /  1018.8 hPa West 2 mph /  3.2 km/h 3 mph /  4.8 km/h 62 % 0 in /  0.0 mm
20:22 78.3 °F /  25.7 °C 49.8 °F /  9.9 °C 30.1 in /  1017.8 hPa SW 8.1 mph /  13.0 km/h 8.1 mph /  13.0 km/h 37 % 0 in /  0.0 mm
20:27 77.9 °F /  25.5 °C 50.2 °F /  10.1 °C 30.1 in /  1017.8 hPa SW 5.8 mph /  9.3 km/h 5.8 mph /  9.3 km/h 38 % 0 in /  0.0 mm
20:32 77.7 °F /  25.4 °C 50.2 °F /  10.1 °C 30.1 in /  1017.8 hPa SW 6.4 mph /  10.3 km/h 6.4 mph /  10.3 km/h 38 % 0 in /  0.0 mm
20:34 77.5 °F /  25.3 °C 49.8 °F /  9.9 °C 30.1 in /  1017.8 hPa WSW 6.9 mph /  11.1 km/h 6.9 mph /  11.1 km/h 38 % 0 in /  0.0 mm
20:39 77.5 °F /  25.3 °C 49.8 °F /  9.9 °C 30.1 in /  1017.8 hPa SSW 4 mph /  6.4 km/h 4 mph /  6.4 km/h 38 % 0 in /  0.0 mm
20:40 68.5 °F /  20.3 °C 55.4 °F /  13.0 °C 30.1 in /  1018.8 hPa WSW 2 mph /  3.2 km/h 2 mph /  3.2 km/h 63 % 0 in /  0.0 mm
20:44 77.2 °F /  25.1 °C 50.4 °F /  10.2 °C 30.1 in /  1017.8 hPa SW 5.6 mph /  9.0 km/h 5.6 mph /  9.0 km/h 39 % 0 in /  0.0 mm
20:49 77 °F /  25.0 °C 50.2 °F /  10.1 °C 30.1 in /  1017.8 hPa SSE 3.5 mph /  5.6 km/h 3.5 mph /  5.6 km/h 39 % 0 in /  0.0 mm
20:50 68.5 °F /  20.3 °C 56.3 °F /  13.5 °C 30.1 in /  1018.8 hPa West 2 mph /  3.2 km/h 2 mph /  3.2 km/h 65 % 0 in /  0.0 mm
20:54 76.6 °F /  24.8 °C 50.5 °F /  10.3 °C 30.1 in /  1017.8 hPa SW 5.8 mph /  9.3 km/h 5.8 mph /  9.3 km/h 40 % 0 in /  0.0 mm
20:59 76.5 °F /  24.7 °C 50.4 °F /  10.2 °C 30.1 in /  1017.8 hPa SW 2.3 mph /  3.7 km/h 2.3 mph /  3.7 km/h 40 % 0 in /  0.0 mm
21:00 68.5 °F /  20.3 °C 56.7 °F /  13.7 °C 30.1 in /  1017.8 hPa West 2 mph /  3.2 km/h 3 mph /  4.8 km/h 66 % 0 in /  0.0 mm
21:04 76.3 °F /  24.6 °C 50.7 °F /  10.4 °C 30.1 in /  1017.8 hPa SW 2.4 mph /  3.9 km/h 2.4 mph /  3.9 km/h 41 % 0 in /  0.0 mm
21:09 76.1 °F /  24.5 °C 50.7 °F /  10.4 °C 30.1 in /  1017.8 hPa SW 2.3 mph /  3.7 km/h 2.3 mph /  3.7 km/h 41 % 0 in /  0.0 mm
21:10 68.2 °F /  20.1 °C 57.2 °F /  14.0 °C 30.1 in /  1017.8 hPa Calm   1 mph /  1.6 km/h 68 % 0 in /  0.0 mm
21:14 75.7 °F /  24.3 °C 50.4 °F /  10.2 °C 30.1 in /  1017.8 hPa SW 3.5 mph /  5.6 km/h 3.5 mph /  5.6 km/h 41 % 0 in /  0.0 mm
21:19 75.4 °F /  24.1 °C 50 °F /  10.0 °C 30.1 in /  1017.8 hPa WSW 3.5 mph /  5.6 km/h 3.5 mph /  5.6 km/h 41 % 0 in /  0.0 mm
21:20 67.8 °F /  19.9 °C 57.7 °F /  14.3 °C 30.1 in /  1018.8 hPa Calm     70 % 0 in /  0.0 mm
21:24 75.2 °F /  24.0 °C 50.5 °F /  10.3 °C 30.1 in /  1017.8 hPa South 3.5 mph /  5.6 km/h 3.5 mph /  5.6 km/h 42 % 0 in /  0.0 mm
21:29 74.8 °F /  23.8 °C 50.2 °F /  10.1 °C 30.1 in /  1017.8 hPa West 2.3 mph /  3.7 km/h 2.3 mph /  3.7 km/h 42 % 0 in /  0.0 mm
21:30 67.3 °F /  19.6 °C 56.8 °F /  13.8 °C 30.1 in /  1018.8 hPa Calm   1 mph /  1.6 km/h 69 % 0 in /  0.0 mm
21:34 74.7 °F /  23.7 °C 50.7 °F /  10.4 °C 30.1 in /  1017.8 hPa SW 3.8 mph /  6.1 km/h 3.8 mph /  6.1 km/h 43 % 0 in /  0.0 mm
21:39 74.3 °F /  23.5 °C 50.4 °F /  10.2 °C 30.1 in /  1017.8 hPa WSW 4.6 mph /  7.4 km/h 4.6 mph /  7.4 km/h 43 % 0 in /  0.0 mm
21:40 66.7 °F /  19.3 °C 56.7 °F /  13.7 °C 30.1 in /  1018.8 hPa Calm     70 % 0 in /  0.0 mm
21:44 74.1 °F /  23.4 °C 50.7 °F /  10.4 °C 30.1 in /  1017.8 hPa SSW 2.3 mph /  3.7 km/h 2.3 mph /  3.7 km/h 44 % 0 in /  0.0 mm
21:49 73.9 °F /  23.3 °C 50.5 °F /  10.3 °C 30.1 in /  1017.8 hPa West 3.5 mph /  5.6 km/h 3.5 mph /  5.6 km/h 44 % 0 in /  0.0 mm
21:50 66.4 °F /  19.1 °C 56.7 °F /  13.7 °C 30.1 in /  1017.8 hPa Calm   1 mph /  1.6 km/h 71 % 0 in /  0.0 mm
21:54 73.8 °F /  23.2 °C 51.1 °F /  10.6 °C 30.1 in /  1017.8 hPa West 2 mph /  3.2 km/h 2 mph /  3.2 km/h 45 % 0 in /  0.0 mm
21:55 73.8 °F /  23.2 °C 51.1 °F /  10.6 °C 30.1 in /  1017.8 hPa WNW 2.3 mph /  3.7 km/h 2.3 mph /  3.7 km/h 45 % 0 in /  0.0 mm
22:00 73.6 °F /  23.1 °C 50.9 °F /  10.5 °C 30.1 in /  1018.8 hPa WSW 2.3 mph /  3.7 km/h 2.3 mph /  3.7 km/h 45 % 0 in /  0.0 mm
22:05 73.4 °F /  23.0 °C 51.4 °F /  10.8 °C 30.1 in /  1018.8 hPa West 2.3 mph /  3.7 km/h 2.3 mph /  3.7 km/h 46 % 0 in /  0.0 mm
22:10 73.2 °F /  22.9 °C 51.3 °F /  10.7 °C 30.1 in /  1018.8 hPa WSW 2.3 mph /  3.7 km/h 2.3 mph /  3.7 km/h 46 % 0 in /  0.0 mm
22:15 73 °F /  22.8 °C 51.6 °F /  10.9 °C 30.1 in /  1017.8 hPa SW 2.3 mph /  3.7 km/h 2.3 mph /  3.7 km/h 47 % 0 in /  0.0 mm
22:20 73 °F /  22.8 °C 51.6 °F /  10.9 °C 30.1 in /  1017.8 hPa WSW 2.3 mph /  3.7 km/h 2.3 mph /  3.7 km/h 47 % 0 in /  0.0 mm
22:25 72.9 °F /  22.7 °C 51.4 °F /  10.8 °C 30.1 in /  1017.8 hPa WSW 0.9 mph /  1.4 km/h 1.2 mph /  1.9 km/h 47 % 0 in /  0.0 mm
22:30 72.7 °F /  22.6 °C 51.3 °F /  10.7 °C 30.1 in /  1018.8 hPa West 3.5 mph /  5.6 km/h 3.5 mph /  5.6 km/h 47 % 0 in /  0.0 mm
22:35 72.5 °F /  22.5 °C 51.1 °F /  10.6 °C 30.1 in /  1018.8 hPa WSW 4.6 mph /  7.4 km/h 4.6 mph /  7.4 km/h 47 % 0 in /  0.0 mm
22:40 72.5 °F /  22.5 °C 51.6 °F /  10.9 °C 30.1 in /  1018.8 hPa West 2.4 mph /  3.9 km/h 2.4 mph /  3.9 km/h 48 % 0 in /  0.0 mm
22:45 72.3 °F /  22.4 °C 51.4 °F /  10.8 °C 30.1 in /  1018.8 hPa SW 2.6 mph /  4.2 km/h 2.6 mph /  4.2 km/h 48 % 0 in /  0.0 mm
22:50 72.1 °F /  22.3 °C 51.4 °F /  10.8 °C 30.1 in /  1018.8 hPa WSW 2.3 mph /  3.7 km/h 2.3 mph /  3.7 km/h 48 % 0 in /  0.0 mm
22:55 72 °F /  22.2 °C 51.3 °F /  10.7 °C 30.1 in /  1018.8 hPa West 2.3 mph /  3.7 km/h 2.3 mph /  3.7 km/h 48 % 0 in /  0.0 mm
23:00 71.8 °F /  22.1 °C 51.1 °F /  10.6 °C 30.1 in /  1018.8 hPa SW 2.6 mph /  4.2 km/h 2.6 mph /  4.2 km/h 48 % 0 in /  0.0 mm
23:05 71.6 °F /  22.0 °C 51.4 °F /  10.8 °C 30.1 in /  1018.8 hPa SW 2.3 mph /  3.7 km/h 2.3 mph /  3.7 km/h 49 % 0 in /  0.0 mm
23:10 71.6 °F /  22.0 °C 51.4 °F /  10.8 °C 30.1 in /  1018.8 hPa SW 2.3 mph /  3.7 km/h 2.3 mph /  3.7 km/h 49 % 0 in /  0.0 mm
23:15 71.4 °F /  21.9 °C 51.3 °F /  10.7 °C 30.1 in /  1018.8 hPa West 2.3 mph /  3.7 km/h 2.3 mph /  3.7 km/h 49 % 0 in /  0.0 mm
23:20 71.2 °F /  21.8 °C 51.1 °F /  10.6 °C 30.1 in /  1018.8 hPa WSW 2.3 mph /  3.7 km/h 2.3 mph /  3.7 km/h 49 % 0 in /  0.0 mm
23:25 71.2 °F /  21.8 °C 51.6 °F /  10.9 °C 30.1 in /  1018.8 hPa WSW 1.2 mph /  1.9 km/h 1.4 mph /  2.3 km/h 50 % 0 in /  0.0 mm
23:30 71.1 °F /  21.7 °C 51.4 °F /  10.8 °C 30.1 in /  1018.8 hPa WNW 2.3 mph /  3.7 km/h 2.3 mph /  3.7 km/h 50 % 0 in /  0.0 mm
23:35 71.1 °F /  21.7 °C 52 °F /  11.1 °C 30.1 in /  1018.8 hPa WSW 1.4 mph /  2.3 km/h   51 % 0 in /  0.0 mm
23:40 70.9 °F /  21.6 °C 51.8 °F /  11.0 °C 30.1 in /  1018.8 hPa West 2.3 mph /  3.7 km/h 2.3 mph /  3.7 km/h 51 % 0 in /  0.0 mm
23:41 70.9 °F /  21.6 °C 51.8 °F /  11.0 °C 30.1 in /  1018.8 hPa West 2.3 mph /  3.7 km/h 2.3 mph /  3.7 km/h 51 % 0 in /  0.0 mm
23:46 70.7 °F /  21.5 °C 51.6 °F /  10.9 °C 30.1 in /  1018.8 hPa West 2 mph /  3.2 km/h 2 mph /  3.2 km/h 51 % 0 in /  0.0 mm
23:50 63.9 °F /  17.7 °C 56.1 °F /  13.4 °C 30.1 in /  1017.8 hPa WNW 1 mph /  1.6 km/h 2 mph /  3.2 km/h 76 % 0 in /  0.0 mm
23:51 70.7 °F /  21.5 °C 52.2 °F /  11.2 °C 30.1 in /  1018.8 hPa West 2.6 mph /  4.2 km/h 2.6 mph /  4.2 km/h 52 % 0 in /  0.0 mm
23:56 70.5 °F /  21.4 °C 52 °F /  11.1 °C 30.1 in /  1018.8 hPa WSW 2.6 mph /  4.2 km/h 2.6 mph /  4.2 km/h 52 % 0 in /  0.0 mm
Meteo Sesrovires
Elogis d' Weather Underground - 3.75 mb

Guio original per  Jim McMurry - jmcmurry@mwt.net Adaptat per a la plantilla per  Wim van der Kuil - Leuven-Template.eu

Trobareu la nostra informacio del temps tambe a:

Weather Underground

AWEKAS